createdAt,value
2018-03-22T00:00:05.497Z,33.1
2018-03-22T00:00:55.451Z,32.7
2018-03-22T00:01:45.219Z,32.2
2018-03-22T00:02:36.758Z,31.6
2018-03-22T00:03:26.129Z,31
2018-03-22T00:04:14.641Z,30.5
2018-03-22T00:05:05.770Z,30.2
2018-03-22T00:05:55.235Z,29.9
2018-03-22T00:06:46.658Z,29.7
2018-03-22T00:07:35.209Z,29.6
2018-03-22T00:08:26.266Z,29.4
2018-03-22T00:09:16.931Z,29.2
2018-03-22T00:10:05.205Z,29.1
2018-03-22T00:10:56.021Z,28.9
2018-03-22T00:11:47.050Z,28.6
2018-03-22T00:12:35.796Z,29.3
2018-03-22T00:13:26.094Z,30
2018-03-22T00:14:15.370Z,30.5
2018-03-22T00:15:05.445Z,30.9
2018-03-22T00:15:56.088Z,31.3
2018-03-22T00:16:46.825Z,31.6
2018-03-22T00:17:36.228Z,31.9
2018-03-22T00:18:27.068Z,32.1
2018-03-22T00:19:16.503Z,32.4
2018-03-22T00:20:06.661Z,32.6
2018-03-22T00:20:56.760Z,32.8
2018-03-22T00:21:47.193Z,33.1
2018-03-22T00:22:37.037Z,33.3
2018-03-22T00:23:27.695Z,33.4
2018-03-22T00:24:16.807Z,32.9
2018-03-22T00:25:07.140Z,31.9
2018-03-22T00:25:56.764Z,30.4
2018-03-22T00:26:47.180Z,29.4
2018-03-22T00:27:37.995Z,28.4
2018-03-22T00:28:28.216Z,27.2
2018-03-22T00:29:17.460Z,26.1
2018-03-22T00:30:07.305Z,26.1
2018-03-22T00:30:56.459Z,26.3
2018-03-22T00:31:48.012Z,27.4
2018-03-22T00:32:37.337Z,28.6
2018-03-22T00:33:28.307Z,29.4
2018-03-22T00:34:17.742Z,30.1
2018-03-22T00:35:06.865Z,30.8
2018-03-22T00:35:57.707Z,31.2
2018-03-22T00:36:48.425Z,31.6
2018-03-22T00:37:37.027Z,31.9
2018-03-22T00:38:28.389Z,32.3
2018-03-22T00:39:18.177Z,32.7
2018-03-22T00:40:08.327Z,32.9
2018-03-22T00:40:58.356Z,33.3
2018-03-22T00:41:48.492Z,33.5
2018-03-22T00:42:38.694Z,33.8
2018-03-22T00:43:28.708Z,33.9
2018-03-22T00:44:17.940Z,34.1
2018-03-22T00:45:08.838Z,34.4
2018-03-22T00:45:57.807Z,34.6
2018-03-22T00:46:48.834Z,34.6
2018-03-22T00:47:38.593Z,33.7
2018-03-22T00:48:28.097Z,33.6
2018-03-22T00:49:19.014Z,33.5
2018-03-22T00:50:08.858Z,33.1
2018-03-22T00:50:58.743Z,32.6
2018-03-22T00:51:48.860Z,32.1
2018-03-22T00:52:38.890Z,31.6
2018-03-22T00:53:29.216Z,30.9
2018-03-22T00:54:18.954Z,30.3
2018-03-22T00:55:08.395Z,29.8
2018-03-22T00:55:58.950Z,29.4
2018-03-22T00:56:49.448Z,29.1
2018-03-22T00:57:39.976Z,29.1
2018-03-22T00:58:28.875Z,29
2018-03-22T00:59:18.913Z,28.9
2018-03-22T01:00:10.195Z,28.8
2018-03-22T01:01:00.251Z,28.5
2018-03-22T01:01:49.555Z,28.9
2018-03-22T01:02:39.860Z,29.8
2018-03-22T01:03:29.006Z,30.3
2018-03-22T01:04:20.193Z,30.8
2018-03-22T01:05:10.043Z,31.2
2018-03-22T01:06:00.059Z,31.5
2018-03-22T01:06:50.625Z,31.9
2018-03-22T01:07:39.967Z,32.2
2018-03-22T01:08:29.661Z,32.4
2018-03-22T01:09:20.712Z,32.7
2018-03-22T01:10:10.123Z,32.9
2018-03-22T01:11:00.231Z,33.2
2018-03-22T01:11:50.875Z,33.4
2018-03-22T01:12:40.563Z,33.6
2018-03-22T01:13:30.598Z,33.8
2018-03-22T01:14:20.856Z,33.9
2018-03-22T01:15:11.207Z,34.1
2018-03-22T01:16:01.366Z,34.3
2018-03-22T01:16:50.825Z,34.4
2018-03-22T01:17:41.729Z,34.6
2018-03-22T01:18:30.282Z,34.4
2018-03-22T01:19:21.728Z,33.6
2018-03-22T01:20:10.480Z,33.5
2018-03-22T01:21:00.519Z,33.4
2018-03-22T01:21:50.878Z,33
2018-03-22T01:22:41.100Z,32.5
2018-03-22T01:23:30.321Z,32
2018-03-22T01:24:21.382Z,31.4
2018-03-22T01:25:11.007Z,30.8
2018-03-22T01:26:01.494Z,30.2
2018-03-22T01:26:51.722Z,29.8
2018-03-22T01:27:41.396Z,29.4
2018-03-22T01:28:31.219Z,29.4
2018-03-22T01:29:20.123Z,29.3
2018-03-22T01:30:10.982Z,29.1
2018-03-22T01:31:01.234Z,28.9
2018-03-22T01:31:51.824Z,28.9
2018-03-22T01:32:41.969Z,28.6
2018-03-22T01:33:31.664Z,29.1
2018-03-22T01:34:22.161Z,29.9
2018-03-22T01:35:12.134Z,30.4
2018-03-22T01:36:01.877Z,30.9
2018-03-22T01:36:53.032Z,31.3
2018-03-22T01:37:43.091Z,31.6
2018-03-22T01:38:31.751Z,31.9
2018-03-22T01:39:22.409Z,32.1
2018-03-22T01:40:12.405Z,32.4
2018-03-22T01:41:02.513Z,32.6
2018-03-22T01:41:52.319Z,32.8
2018-03-22T01:42:42.274Z,32.9
2018-03-22T01:43:32.606Z,33.1
2018-03-22T01:44:22.693Z,33.4
2018-03-22T01:45:11.899Z,33.5
2018-03-22T01:46:03.185Z,33.7
2018-03-22T01:46:52.815Z,33.8
2018-03-22T01:47:43.198Z,33.9
2018-03-22T01:48:33.346Z,34.1
2018-03-22T01:49:23.183Z,34.3
2018-03-22T01:50:14.221Z,34.4
2018-03-22T01:51:03.050Z,34.5
2018-03-22T01:51:53.549Z,33.8
2018-03-22T01:52:42.928Z,33.5
2018-03-22T01:53:33.121Z,33.4
2018-03-22T01:54:23.481Z,33.1
2018-03-22T01:55:13.033Z,32.7
2018-03-22T01:56:02.908Z,32.2
2018-03-22T01:56:53.542Z,31.6
2018-03-22T01:57:43.687Z,31
2018-03-22T01:58:34.618Z,30.4
2018-03-22T01:59:23.428Z,29.9
2018-03-22T02:00:13.917Z,29.5
2018-03-22T02:01:03.915Z,29.3
2018-03-22T02:01:53.882Z,29.3
2018-03-22T02:02:44.529Z,29.1
2018-03-22T02:03:34.557Z,29
2018-03-22T02:04:23.260Z,28.9
2018-03-22T02:05:14.497Z,28.8
2018-03-22T02:06:03.697Z,28.6
2018-03-22T02:06:55.172Z,29.4
2018-03-22T02:07:44.029Z,30.1
2018-03-22T02:08:33.819Z,30.5
2018-03-22T02:09:25.012Z,30.9
2018-03-22T02:10:14.305Z,31.3
2018-03-22T02:11:04.524Z,31.6
2018-03-22T02:11:55.722Z,31.9
2018-03-22T02:12:44.222Z,32.1
2018-03-22T02:13:34.028Z,32.4
2018-03-22T02:14:25.053Z,32.6
2018-03-22T02:15:14.809Z,32.8
2018-03-22T02:16:04.974Z,33
2018-03-22T02:16:53.962Z,33.1
2018-03-22T02:17:45.197Z,33.3
2018-03-22T02:18:35.241Z,33.4
2018-03-22T02:19:25.743Z,33.6
2018-03-22T02:20:15.281Z,33.7
2018-03-22T02:21:04.821Z,33.8
2018-03-22T02:21:55.174Z,33.9
2018-03-22T02:22:45.716Z,34.1
2018-03-22T02:23:35.279Z,34.2
2018-03-22T02:24:26.339Z,34.3
2018-03-22T02:25:14.341Z,34.3
2018-03-22T02:26:05.612Z,34.4
2018-03-22T02:26:55.751Z,33.7
2018-03-22T02:27:46.282Z,33.3
2018-03-22T02:28:36.651Z,33.3
2018-03-22T02:29:25.596Z,33.1
2018-03-22T02:30:16.477Z,32.6
2018-03-22T02:31:06.326Z,32.1
2018-03-22T02:31:55.817Z,31.6
2018-03-22T02:32:46.168Z,31
2018-03-22T02:33:36.728Z,30.4
2018-03-22T02:34:26.473Z,30
2018-03-22T02:35:16.241Z,29.7
2018-03-22T02:36:05.012Z,29.6
2018-03-22T02:36:56.061Z,29.4
2018-03-22T02:37:46.888Z,29.2
2018-03-22T02:38:36.354Z,29.1
2018-03-22T02:39:26.622Z,28.9
2018-03-22T02:40:17.386Z,28.6
2018-03-22T02:41:06.788Z,28.9
2018-03-22T02:41:56.603Z,29.6
2018-03-22T02:42:46.375Z,30.2
2018-03-22T02:43:36.132Z,30.6
2018-03-22T02:44:26.957Z,30.9
2018-03-22T02:45:16.570Z,31.2
2018-03-22T02:46:07.523Z,31.5
2018-03-22T02:46:56.837Z,31.8
2018-03-22T02:47:46.749Z,32
2018-03-22T02:48:37.463Z,32.2
2018-03-22T02:49:27.235Z,32.4
2018-03-22T02:50:18.151Z,32.6
2018-03-22T02:51:06.852Z,32.8
2018-03-22T02:51:56.977Z,32.9
2018-03-22T02:52:47.656Z,33.1
2018-03-22T02:53:37.303Z,33.1
2018-03-22T02:54:27.277Z,33.3
2018-03-22T02:55:17.739Z,33.4
2018-03-22T02:56:07.423Z,33.4
2018-03-22T02:56:57.867Z,33.6
2018-03-22T02:57:47.227Z,33.6
2018-03-22T02:58:37.881Z,33.8
2018-03-22T02:59:27.372Z,33.8
2018-03-22T03:00:18.508Z,33.9
2018-03-22T03:01:07.440Z,33.9
2018-03-22T03:01:58.778Z,33.9
2018-03-22T03:02:48.478Z,34
2018-03-22T03:03:37.721Z,34.1
2018-03-22T03:04:28.088Z,34.1
2018-03-22T03:05:17.415Z,34.1
2018-03-22T03:06:08.179Z,34.1
2018-03-22T03:06:58.459Z,34.1
2018-03-22T03:07:48.794Z,34.2
2018-03-22T03:08:38.939Z,34.2
2018-03-22T03:09:27.832Z,33.8
2018-03-22T03:10:17.772Z,32.8
2018-03-22T03:11:08.231Z,31.2
2018-03-22T03:11:57.953Z,30.1
2018-03-22T03:12:48.608Z,29.3
2018-03-22T03:13:38.866Z,28.3
2018-03-22T03:14:29.314Z,27.3
2018-03-22T03:15:18.967Z,26.1
2018-03-22T03:16:09.462Z,25.1
2018-03-22T03:16:58.638Z,25.3
2018-03-22T03:17:48.938Z,25.6
2018-03-22T03:18:39.318Z,27
2018-03-22T03:19:29.728Z,28.1
2018-03-22T03:20:18.542Z,29.1
2018-03-22T03:21:09.294Z,29.9
2018-03-22T03:22:00.595Z,30.5
2018-03-22T03:22:49.137Z,31
2018-03-22T03:23:39.900Z,31.4
2018-03-22T03:24:28.662Z,31.8
2018-03-22T03:25:19.000Z,32.1
2018-03-22T03:26:09.643Z,32.5
2018-03-22T03:26:58.822Z,32.8
2018-03-22T03:27:49.750Z,33.1
2018-03-22T03:28:39.945Z,33.3
2018-03-22T03:29:30.307Z,33.6
2018-03-22T03:30:20.486Z,33.8
2018-03-22T03:31:10.629Z,34
2018-03-22T03:32:00.515Z,34.1
2018-03-22T03:32:50.050Z,34.3
2018-03-22T03:33:39.794Z,34.5
2018-03-22T03:34:31.464Z,34.5
2018-03-22T03:35:20.513Z,33.6
2018-03-22T03:36:11.173Z,33.6
2018-03-22T03:37:00.354Z,33.4
2018-03-22T03:37:49.114Z,33
2018-03-22T03:38:39.367Z,32.6
2018-03-22T03:39:29.964Z,32.1
2018-03-22T03:40:20.470Z,31.4
2018-03-22T03:41:10.309Z,30.8
2018-03-22T03:42:00.600Z,30.1
2018-03-22T03:42:50.137Z,29.6
2018-03-22T03:43:41.684Z,29.3
2018-03-22T03:44:31.154Z,29.1
2018-03-22T03:45:21.217Z,29.1
2018-03-22T03:46:10.639Z,29
2018-03-22T03:47:02.115Z,28.9
2018-03-22T03:47:50.722Z,28.8
2018-03-22T03:48:41.871Z,28.4
2018-03-22T03:49:31.026Z,29
2018-03-22T03:50:21.512Z,29.8
2018-03-22T03:51:11.531Z,30.4
2018-03-22T03:52:00.888Z,30.8
2018-03-22T03:52:52.164Z,31.3
2018-03-22T03:53:41.182Z,31.6
2018-03-22T03:54:32.030Z,31.9
2018-03-22T03:55:21.589Z,32.2
2018-03-22T03:56:11.286Z,32.4
2018-03-22T03:57:02.280Z,32.6
2018-03-22T03:57:51.392Z,32.8
2018-03-22T03:58:41.901Z,33
2018-03-22T03:59:32.810Z,33.2
2018-03-22T04:00:22.115Z,33.4
2018-03-22T04:01:12.868Z,33.6
2018-03-22T04:02:02.079Z,33.8
2018-03-22T04:02:52.205Z,33.9
2018-03-22T04:03:42.551Z,34.1
2018-03-22T04:04:32.745Z,34.2
2018-03-22T04:05:23.067Z,34.4
2018-03-22T04:06:12.140Z,34.4
2018-03-22T04:07:01.543Z,34.6
2018-03-22T04:07:52.473Z,33.8
2018-03-22T04:08:42.622Z,33.5
2018-03-22T04:09:32.881Z,33.4
2018-03-22T04:10:22.946Z,33.1
2018-03-22T04:11:13.340Z,32.7
2018-03-22T04:12:04.242Z,32.2
2018-03-22T04:12:53.625Z,31.6
2018-03-22T04:13:43.361Z,31
2018-03-22T04:14:33.142Z,30.4
2018-03-22T04:15:22.897Z,29.9
2018-03-22T04:16:13.253Z,29.6
2018-03-22T04:17:03.770Z,29.6
2018-03-22T04:17:53.251Z,29.4
2018-03-22T04:18:42.830Z,29.3
2018-03-22T04:19:33.674Z,29.2
2018-03-22T04:20:24.302Z,29.1
2018-03-22T04:21:13.567Z,28.8
2018-03-22T04:22:03.247Z,29.2
2018-03-22T04:22:54.119Z,30
2018-03-22T04:23:43.360Z,30.6
2018-03-22T04:24:33.842Z,30.9
2018-03-22T04:25:23.514Z,31.4
2018-03-22T04:26:12.757Z,31.7
2018-03-22T04:27:04.574Z,31.9
2018-03-22T04:27:55.280Z,32.3
2018-03-22T04:28:44.244Z,32.5
2018-03-22T04:29:34.809Z,32.7
2018-03-22T04:30:24.327Z,32.9
2018-03-22T04:31:15.374Z,33.2
2018-03-22T04:32:04.950Z,33.4
2018-03-22T04:32:54.685Z,33.5
2018-03-22T04:33:44.753Z,33.7
2018-03-22T04:34:35.156Z,33.9
2018-03-22T04:35:24.405Z,34
2018-03-22T04:36:14.177Z,34.1
2018-03-22T04:37:04.311Z,34.3
2018-03-22T04:37:54.850Z,34.4
2018-03-22T04:38:44.776Z,34.6
2018-03-22T04:39:35.168Z,34.6
2018-03-22T04:40:24.703Z,34.8
2018-03-22T04:41:14.795Z,34.8
2018-03-22T04:42:04.438Z,34.2
2018-03-22T04:42:55.713Z,33.8
2018-03-22T04:43:45.078Z,33.7
2018-03-22T04:44:35.145Z,33.4
2018-03-22T04:45:25.887Z,33.1
2018-03-22T04:46:14.843Z,32.6
2018-03-22T04:47:04.721Z,32
2018-03-22T04:47:55.494Z,31.4
2018-03-22T04:48:46.550Z,30.8
2018-03-22T04:49:34.888Z,30.2
2018-03-22T04:50:25.256Z,29.8
2018-03-22T04:51:15.129Z,29.6
2018-03-22T04:52:05.645Z,29.6
2018-03-22T04:52:55.627Z,29.4
2018-03-22T04:53:46.980Z,29.3
2018-03-22T04:54:37.363Z,29.1
2018-03-22T04:55:27.075Z,29.1
2018-03-22T04:56:17.155Z,29
2018-03-22T04:57:07.168Z,28.9
2018-03-22T04:57:57.274Z,28.9
2018-03-22T04:58:47.083Z,28.8
2018-03-22T04:59:37.420Z,28.8
2018-03-22T05:00:27.454Z,28.4
2018-03-22T05:01:17.535Z,29.1
2018-03-22T05:02:06.152Z,29.8
2018-03-22T05:02:57.620Z,30.3
2018-03-22T05:03:47.425Z,30.7
2018-03-22T05:04:37.465Z,31.1
2018-03-22T05:05:27.797Z,31.4
2018-03-22T05:06:18.164Z,31.7
2018-03-22T05:07:08.012Z,31.9
2018-03-22T05:07:58.561Z,32.1
2018-03-22T05:08:47.454Z,32.4
2018-03-22T05:09:38.363Z,32.6
2018-03-22T05:10:28.729Z,32.8
2018-03-22T05:11:18.497Z,32.9
2018-03-22T05:12:08.018Z,33.1
2018-03-22T05:12:58.020Z,33.3
2018-03-22T05:13:47.969Z,33.4
2018-03-22T05:14:38.774Z,33.6
2018-03-22T05:15:28.284Z,33.7
2018-03-22T05:16:18.270Z,33.8
2018-03-22T05:17:08.683Z,33.9
2018-03-22T05:17:58.653Z,34
2018-03-22T05:18:49.232Z,34.1
2018-03-22T05:19:38.501Z,34.1
2018-03-22T05:20:28.601Z,34.3
2018-03-22T05:21:19.186Z,34.3
2018-03-22T05:22:09.239Z,34.4
2018-03-22T05:22:58.432Z,34.5
2018-03-22T05:23:49.669Z,34.6
2018-03-22T05:24:39.463Z,34.6
2018-03-22T05:25:29.239Z,34.6
2018-03-22T05:26:19.491Z,34.8
2018-03-22T05:27:09.319Z,34.6
2018-03-22T05:27:59.650Z,33.8
2018-03-22T05:28:49.978Z,33.6
2018-03-22T05:29:39.731Z,33.5
2018-03-22T05:30:29.534Z,33.1
2018-03-22T05:31:20.205Z,32.7
2018-03-22T05:32:09.646Z,32.2
2018-03-22T05:32:59.683Z,31.6
2018-03-22T05:33:50.093Z,30.9
2018-03-22T05:34:40.138Z,30.3
2018-03-22T05:35:30.443Z,29.8
2018-03-22T05:36:20.456Z,29.4
2018-03-22T05:37:10.296Z,29.3
2018-03-22T05:38:00.318Z,29.1
2018-03-22T05:38:50.375Z,29
2018-03-22T05:39:40.701Z,28.8
2018-03-22T05:40:30.508Z,28.7
2018-03-22T05:41:20.514Z,28.6
2018-03-22T05:42:10.131Z,28.6
2018-03-22T05:42:59.733Z,28.6
2018-03-22T05:43:49.818Z,28.4
2018-03-22T05:44:40.024Z,28.4
2018-03-22T05:45:28.511Z,28
2018-03-22T05:46:20.140Z,28.2
2018-03-22T05:47:09.844Z,28.9
2018-03-22T05:48:00.102Z,29.4
2018-03-22T05:48:50.243Z,29.9
2018-03-22T05:49:40.047Z,30.2
2018-03-22T05:50:30.535Z,30.6
2018-03-22T05:51:19.662Z,30.8
2018-03-22T05:52:09.955Z,31.1
2018-03-22T05:52:59.855Z,31.3
2018-03-22T05:53:50.113Z,31.5
2018-03-22T05:54:39.891Z,31.6
2018-03-22T05:55:30.413Z,31.8
2018-03-22T05:56:20.420Z,31.9
2018-03-22T05:57:10.540Z,32.1
2018-03-22T05:58:00.936Z,32.2
2018-03-22T05:58:50.761Z,32.3
2018-03-22T05:59:40.255Z,32.4
2018-03-22T06:00:31.258Z,32.5
2018-03-22T06:01:21.460Z,32.6
2018-03-22T06:02:10.647Z,32.7
2018-03-22T06:03:00.600Z,32.8
2018-03-22T06:03:50.642Z,32.8
2018-03-22T06:04:40.569Z,32.9
2018-03-22T06:05:30.360Z,32.9
2018-03-22T06:06:20.905Z,33
2018-03-22T06:07:10.549Z,32.7
2018-03-22T06:08:01.146Z,31.8
2018-03-22T06:08:52.492Z,30.3
2018-03-22T06:09:41.237Z,29.3
2018-03-22T06:10:31.179Z,28.5
2018-03-22T06:11:22.134Z,27.6
2018-03-22T06:12:11.104Z,26.5
2018-03-22T06:13:01.410Z,25.4
2018-03-22T06:13:50.964Z,24.6
2018-03-22T06:14:42.254Z,24.9
2018-03-22T06:15:30.269Z,25.5
2018-03-22T06:16:22.494Z,26.9
2018-03-22T06:17:11.377Z,28.1
2018-03-22T06:18:02.400Z,29
2018-03-22T06:18:51.892Z,29.7
2018-03-22T06:19:41.331Z,30.3
2018-03-22T06:20:31.997Z,30.8
2018-03-22T06:21:21.949Z,31.3
2018-03-22T06:22:11.974Z,31.7
2018-03-22T06:23:01.933Z,32.1
2018-03-22T06:23:52.595Z,32.4
2018-03-22T06:24:41.783Z,32.8
2018-03-22T06:25:31.848Z,33
2018-03-22T06:26:22.016Z,33.3
2018-03-22T06:27:11.438Z,33.5
2018-03-22T06:28:02.999Z,33.8
2018-03-22T06:28:53.303Z,33.9
2018-03-22T06:29:42.257Z,34.1
2018-03-22T06:30:31.306Z,34.3
2018-03-22T06:31:22.326Z,34.5
2018-03-22T06:32:12.580Z,34.6
2018-03-22T06:33:02.740Z,34.8
2018-03-22T06:33:51.630Z,34.9
2018-03-22T06:34:43.334Z,35.1
2018-03-22T06:35:33.251Z,34.3
2018-03-22T06:36:22.805Z,33.9
2018-03-22T06:37:13.758Z,33.8
2018-03-22T06:38:02.656Z,33.6
2018-03-22T06:38:53.340Z,33.1
2018-03-22T06:39:43.034Z,32.6
2018-03-22T06:40:32.407Z,32
2018-03-22T06:41:22.796Z,31.4
2018-03-22T06:42:12.300Z,30.6
2018-03-22T06:43:03.123Z,30
2018-03-22T06:43:53.550Z,29.4
2018-03-22T06:44:43.672Z,29.4
2018-03-22T06:45:33.308Z,29.2
2018-03-22T06:46:22.915Z,28.8
2018-03-22T06:47:13.987Z,28.3
2018-03-22T06:48:03.715Z,28.1
2018-03-22T06:49:44.236Z,27.6
2018-03-22T06:50:34.035Z,27.6
2018-03-22T06:51:23.845Z,27.4
2018-03-22T06:52:14.375Z,27.4
2018-03-22T06:53:05.193Z,27.4
2018-03-22T06:53:53.797Z,28.4
2018-03-22T06:54:44.107Z,29.3
2018-03-22T06:55:33.530Z,29.9
2018-03-22T06:56:23.340Z,30.5
2018-03-22T06:57:13.434Z,30.9
2018-03-22T06:58:05.075Z,31.4
2018-03-22T06:58:54.139Z,31.7
2018-03-22T06:59:44.194Z,32
2018-03-22T07:00:35.548Z,32.3
2018-03-22T07:01:24.819Z,32.6
2018-03-22T07:02:14.640Z,32.8
2018-03-22T07:03:05.603Z,33
2018-03-22T07:03:55.615Z,33.3
2018-03-22T07:04:45.660Z,33.4
2018-03-22T07:05:34.865Z,33.6
2018-03-22T07:06:25.363Z,33.8
2018-03-22T07:07:13.708Z,33.9
2018-03-22T07:08:05.364Z,34.1
2018-03-22T07:08:54.623Z,34.2
2018-03-22T07:09:45.088Z,34.3
2018-03-22T07:10:35.481Z,34.4
2018-03-22T07:11:24.998Z,34.6
2018-03-22T07:12:15.609Z,34.7
2018-03-22T07:13:05.545Z,34.8
2018-03-22T07:13:55.213Z,34.9
2018-03-22T07:14:45.433Z,34.9
2018-03-22T07:15:34.966Z,34.7
2018-03-22T07:16:25.851Z,33.9
2018-03-22T07:17:15.898Z,33.8
2018-03-22T07:18:06.109Z,33.6
2018-03-22T07:18:55.858Z,33.3
2018-03-22T07:19:46.708Z,32.8
2018-03-22T07:20:35.469Z,32.2
2018-03-22T07:21:26.743Z,31.6
2018-03-22T07:22:16.477Z,30.9
2018-03-22T07:23:06.079Z,30.3
2018-03-22T07:23:56.153Z,29.7
2018-03-22T07:24:46.140Z,29.3
2018-03-22T07:25:34.830Z,29.3
2018-03-22T07:26:26.393Z,29.1
2018-03-22T07:27:16.965Z,28.6
2018-03-22T07:28:06.646Z,28.2
2018-03-22T07:28:56.323Z,27.9
2018-03-22T07:29:46.866Z,27.8
2018-03-22T07:30:36.808Z,27.6
2018-03-22T07:31:27.428Z,27.5
2018-03-22T07:32:17.540Z,27.4
2018-03-22T07:33:07.202Z,27.3
2018-03-22T07:33:57.862Z,27.5
2018-03-22T07:34:47.012Z,28.5
2018-03-22T07:35:38.792Z,29.3
2018-03-22T07:36:28.527Z,29.9
2018-03-22T07:37:18.320Z,30.4
2018-03-22T07:38:08.524Z,30.8
2018-03-22T07:38:58.456Z,31.1
2018-03-22T07:39:48.515Z,31.4
2018-03-22T07:40:37.626Z,31.8
2018-03-22T07:41:27.170Z,32
2018-03-22T07:42:17.744Z,32.3
2018-03-22T07:43:07.218Z,32.5
2018-03-22T07:43:57.385Z,32.6
2018-03-22T07:44:47.628Z,32.8
2018-03-22T07:45:37.681Z,32.9
2018-03-22T07:46:28.340Z,33.1
2018-03-22T07:47:18.412Z,33.2
2018-03-22T07:48:08.276Z,33.4
2018-03-22T07:48:58.500Z,33.4
2018-03-22T07:49:48.447Z,33.6
2018-03-22T07:50:36.933Z,33.6
2018-03-22T07:51:27.990Z,33.8
2018-03-22T07:52:17.522Z,33.8
2018-03-22T07:53:09.478Z,33.9
2018-03-22T07:53:58.935Z,33.9
2018-03-22T07:54:49.345Z,34
2018-03-22T07:55:38.334Z,34
2018-03-22T07:56:28.325Z,34.1
2018-03-22T07:57:19.667Z,34.1
2018-03-22T07:58:08.520Z,34.1
2018-03-22T07:58:59.231Z,34.2
2018-03-22T07:59:49.670Z,34.2
2018-03-22T08:00:38.842Z,34.2
2018-03-22T08:01:26.925Z,34.2
2018-03-22T08:02:17.741Z,34.3
2018-03-22T08:03:08.982Z,34.2
2018-03-22T08:03:58.855Z,34.2
2018-03-22T08:04:49.214Z,34.2
2018-03-22T08:05:38.949Z,34.2
2018-03-22T08:06:29.319Z,34.2
2018-03-22T08:07:18.877Z,34.3
2018-03-22T08:08:09.624Z,34.2
2018-03-22T08:08:58.869Z,34.2
2018-03-22T08:09:50.152Z,34.2
2018-03-22T08:10:39.274Z,34.2
2018-03-22T08:11:28.969Z,34.1
2018-03-22T08:12:19.803Z,34.2
2018-03-22T08:13:09.373Z,34.2
2018-03-22T08:13:59.347Z,34.1
2018-03-22T08:14:49.284Z,34.1
2018-03-22T08:15:39.065Z,34.1
2018-03-22T08:16:29.938Z,34
2018-03-22T08:17:19.809Z,34
2018-03-22T08:18:10.401Z,34
2018-03-22T08:18:59.663Z,34
2018-03-22T08:19:49.114Z,34
2018-03-22T08:20:40.771Z,33.9
2018-03-22T08:21:30.313Z,33.9
2018-03-22T08:22:19.915Z,33.9
2018-03-22T08:23:09.886Z,33.9
2018-03-22T08:23:59.904Z,33.9
2018-03-22T08:24:50.348Z,33.9
2018-03-22T08:25:39.295Z,33.9
2018-03-22T08:26:31.053Z,33.9
2018-03-22T08:27:20.550Z,33.8
2018-03-22T08:28:10.880Z,33.8
2018-03-22T08:29:01.236Z,33.8
2018-03-22T08:29:51.281Z,33.8
2018-03-22T08:30:39.973Z,33.7
2018-03-22T08:31:30.634Z,33.8
2018-03-22T08:32:20.881Z,33.7
2018-03-22T08:33:10.766Z,33.7
2018-03-22T08:34:00.958Z,33.6
2018-03-22T08:34:51.813Z,33.3
2018-03-22T08:35:40.950Z,32.4
2018-03-22T08:36:31.712Z,30.9
2018-03-22T08:37:21.325Z,29.8
2018-03-22T08:38:11.280Z,28.9
2018-03-22T08:39:01.127Z,28
2018-03-22T08:39:51.733Z,26.9
2018-03-22T08:40:41.950Z,25.9
2018-03-22T08:41:32.077Z,24.9
2018-03-22T08:42:22.439Z,24.7
2018-03-22T08:43:13.169Z,25
2018-03-22T08:44:01.555Z,26.3
2018-03-22T08:44:51.708Z,27.6
2018-03-22T08:45:41.888Z,28.7
2018-03-22T08:46:32.649Z,29.6
2018-03-22T08:47:21.839Z,30.3
2018-03-22T08:48:12.171Z,30.9
2018-03-22T08:49:02.335Z,31.3
2018-03-22T08:49:52.090Z,31.8
2018-03-22T08:50:42.384Z,32.2
2018-03-22T08:51:32.912Z,32.6
2018-03-22T08:52:22.480Z,32.9
2018-03-22T08:53:11.036Z,33.3
2018-03-22T08:54:02.907Z,33.5
2018-03-22T08:54:54.490Z,33.8
2018-03-22T08:55:43.504Z,34.1
2018-03-22T08:56:34.057Z,34.3
2018-03-22T08:57:23.653Z,34.5
2018-03-22T08:58:13.479Z,34.7
2018-03-22T08:59:03.254Z,34.9
2018-03-22T08:59:52.347Z,35.1
2018-03-22T09:00:43.344Z,34.3
2018-03-22T09:01:32.623Z,33.9
2018-03-22T09:02:23.277Z,33.8
2018-03-22T09:03:13.243Z,33.6
2018-03-22T09:04:03.051Z,33.2
2018-03-22T09:04:53.733Z,32.7
2018-03-22T09:05:43.758Z,32.1
2018-03-22T09:06:33.511Z,31.4
2018-03-22T09:07:23.298Z,30.8
2018-03-22T09:08:13.350Z,30.2
2018-03-22T09:09:04.518Z,29.6
2018-03-22T09:09:53.818Z,29.3
2018-03-22T09:10:43.572Z,29.3
2018-03-22T09:11:34.389Z,29
2018-03-22T09:12:22.289Z,28.6
2018-03-22T09:13:13.875Z,28.2
2018-03-22T09:14:03.735Z,27.9
2018-03-22T09:14:53.697Z,27.8
2018-03-22T09:15:44.120Z,27.6
2018-03-22T09:16:33.316Z,27.5
2018-03-22T09:17:24.532Z,27.4
2018-03-22T09:18:14.118Z,27.3
2018-03-22T09:19:04.193Z,27.3
2018-03-22T09:19:54.845Z,28.2
2018-03-22T09:20:44.393Z,29.3
2018-03-22T09:21:33.910Z,29.9
2018-03-22T09:22:24.391Z,30.5
2018-03-22T09:23:14.310Z,31
2018-03-22T09:24:04.538Z,31.4
2018-03-22T09:24:54.538Z,31.8
2018-03-22T09:25:44.477Z,32.1
2018-03-22T09:26:34.138Z,32.4
2018-03-22T09:27:24.997Z,32.8
2018-03-22T09:28:15.065Z,33
2018-03-22T09:29:05.583Z,33.3
2018-03-22T09:29:54.659Z,33.4
2018-03-22T09:30:45.713Z,33.7
2018-03-22T09:31:35.277Z,33.9
2018-03-22T09:32:24.797Z,34.1
2018-03-22T09:33:15.705Z,34.3
2018-03-22T09:34:05.688Z,34.4
2018-03-22T09:34:56.276Z,34.6
2018-03-22T09:35:45.232Z,34.8
2018-03-22T09:36:35.123Z,34.9
2018-03-22T09:37:24.875Z,35.1
2018-03-22T09:38:16.984Z,34.5
2018-03-22T09:39:06.346Z,33.9
2018-03-22T09:39:56.227Z,33.9
2018-03-22T09:40:45.092Z,33.6
2018-03-22T09:41:36.256Z,33.3
2018-03-22T09:42:25.505Z,32.7
2018-03-22T09:43:15.355Z,32.1
2018-03-22T09:44:05.972Z,31.4
2018-03-22T09:44:55.891Z,30.8
2018-03-22T09:45:45.567Z,30.2
2018-03-22T09:46:35.286Z,29.6
2018-03-22T09:47:26.046Z,29.4
2018-03-22T09:48:16.197Z,29.3
2018-03-22T09:49:07.129Z,28.9
2018-03-22T09:49:57.032Z,28.5
2018-03-22T09:50:45.989Z,28.1
2018-03-22T09:51:36.116Z,27.9
2018-03-22T09:52:26.280Z,27.8
2018-03-22T09:53:16.764Z,27.6
2018-03-22T09:54:06.021Z,27.4
2018-03-22T09:54:56.400Z,27.4
2018-03-22T09:55:47.258Z,27.3
2018-03-22T09:56:36.993Z,27.4
2018-03-22T09:57:28.301Z,28.4
2018-03-22T09:58:17.198Z,29.4
2018-03-22T09:59:08.735Z,30
2018-03-22T09:59:58.166Z,30.6
2018-03-22T10:00:48.522Z,31
2018-03-22T10:01:38.866Z,31.4
2018-03-22T10:02:28.885Z,31.8
2018-03-22T10:03:18.654Z,32.1
2018-03-22T10:04:08.182Z,32.4
2018-03-22T10:04:58.285Z,32.6
2018-03-22T10:05:47.827Z,32.9
2018-03-22T10:06:38.895Z,33.1
2018-03-22T10:07:29.278Z,33.3
2018-03-22T10:08:18.985Z,33.5
2018-03-22T10:09:08.314Z,33.7
2018-03-22T10:09:57.836Z,33.8
2018-03-22T10:10:48.415Z,34
2018-03-22T10:11:38.980Z,34.1
2018-03-22T10:12:29.325Z,34.3
2018-03-22T10:13:18.873Z,34.4
2018-03-22T10:14:08.625Z,34.5
2018-03-22T10:14:58.443Z,34.6
2018-03-22T10:15:49.047Z,34.8
2018-03-22T10:16:39.357Z,34.9
2018-03-22T10:17:28.782Z,34.6
2018-03-22T10:18:19.777Z,33.9
2018-03-22T10:19:09.574Z,33.8
2018-03-22T10:19:59.320Z,33.6
2018-03-22T10:20:49.885Z,33.3
2018-03-22T10:21:39.153Z,32.8
2018-03-22T10:22:29.767Z,32.2
2018-03-22T10:23:19.539Z,31.6
2018-03-22T10:24:09.022Z,30.9
2018-03-22T10:24:59.605Z,30.3
2018-03-22T10:25:49.225Z,29.7
2018-03-22T10:26:39.956Z,29.3
2018-03-22T10:27:30.122Z,29.3
2018-03-22T10:28:19.834Z,29.1
2018-03-22T10:29:09.599Z,28.6
2018-03-22T10:30:00.314Z,28.2
2018-03-22T10:30:50.099Z,27.9
2018-03-22T10:31:39.837Z,27.7
2018-03-22T10:32:30.639Z,27.6
2018-03-22T10:33:20.771Z,27.4
2018-03-22T10:34:09.969Z,27.3
2018-03-22T10:35:00.057Z,27.3
2018-03-22T10:35:49.366Z,27.3
2018-03-22T10:36:38.233Z,28.1
2018-03-22T10:37:29.532Z,29.1
2018-03-22T10:38:20.995Z,29.8
2018-03-22T10:39:09.524Z,30.3
2018-03-22T10:39:59.078Z,30.8
2018-03-22T10:40:49.666Z,31.1
2018-03-22T10:41:40.440Z,31.5
2018-03-22T10:42:30.485Z,31.8
2018-03-22T10:43:21.093Z,32.1
2018-03-22T10:44:09.601Z,32.4
2018-03-22T10:45:01.076Z,32.6
2018-03-22T10:45:49.765Z,32.8
2018-03-22T10:46:40.293Z,33
2018-03-22T10:47:29.847Z,33.2
2018-03-22T10:48:21.268Z,33.4
2018-03-22T10:49:10.625Z,33.5
2018-03-22T10:49:59.825Z,33.6
2018-03-22T10:50:50.128Z,33.8
2018-03-22T10:51:40.735Z,33.9
2018-03-22T10:52:31.685Z,34
2018-03-22T10:53:21.066Z,34.1
2018-03-22T10:54:11.202Z,34.2
2018-03-22T10:55:00.562Z,34.3
2018-03-22T10:55:51.613Z,34.4
2018-03-22T10:56:40.483Z,34.5
2018-03-22T10:57:30.370Z,34.6
2018-03-22T10:58:20.643Z,34.6
2018-03-22T10:59:11.651Z,34.7
2018-03-22T11:00:00.428Z,34.8
2018-03-22T11:00:51.272Z,34.8
2018-03-22T11:01:40.560Z,34.8
2018-03-22T11:02:30.673Z,33.9
2018-03-22T11:03:22.102Z,33.7
2018-03-22T11:04:12.320Z,33.6
2018-03-22T11:05:00.865Z,33.3
2018-03-22T11:05:51.842Z,32.9
2018-03-22T11:06:41.904Z,32.3
2018-03-22T11:07:31.479Z,31.8
2018-03-22T11:08:22.247Z,31.1
2018-03-22T11:09:11.364Z,30.5